Terminal Aerodrome Forecast
Issued by NWS

Home | Current Version | Previous Version | Text Only | Print | Product List | Glossary On
Versions: 1 2 3 4 5 6 7 8 9 10 11 12 13 14 15 16 17 18 19 20 21 22 23 24 25 26 27 28 29 30 31 32 33
000
FTUS43 KGRB 020500
TAFRHI
TAF
KRHI 020520Z 0206/0306 00000KT 4SM BR SKC
      TEMPO 0206/0208 1/2SM FG VV002
     FM020800 00000KT 3SM BR SKC
      TEMPO 0208/0212 1/4SM FG VV001
     FM021400 17004KT P6SM SCT050
     FM021800 22004KT P6SM SCT060
     FM030100 VRB03KT P6SM FEW070=

USA.gov is the U.S. government's official web portal to all federal, state and local government web resources and services.